Time;durP1;ratioP1;P1;durP2;ratioP2;P2;SDS_P1;SDS_P2;PMS_P1;PMS_P2;Temp;Humidity;BMP_temperature;BMP_pressure;BME280_temperature;BME280_humidity;BME280_pressure;Samples;Min_cycle;Max_cycle;Signal;HPM_P1;HPM_P2
2024/02/13 00:00:46;;;;;;;11.95;5.50;;;5.60;99.90;;;;;;5078210;28;20152;-64
2024/02/13 00:03:13;;;;;;;11.98;5.43;;;5.60;99.90;;;;;;5060352;28;20036;-64
2024/02/13 00:05:43;;;;;;;8.63;5.10;;;5.60;99.90;;;;;;5079896;28;20477;-64
2024/02/13 00:08:10;;;;;;;11.55;6.63;;;5.60;99.90;;;;;;5092965;28;20035;-64
2024/02/13 00:10:36;;;;;;;11.20;6.05;;;5.60;99.90;;;;;;5091910;28;20044;-64
2024/02/13 00:13:02;;;;;;;12.00;5.55;;;5.70;99.90;;;;;;5082104;28;20043;-64
2024/02/13 00:15:28;;;;;;;12.23;5.80;;;5.50;99.90;;;;;;5079958;28;20393;-64
2024/02/13 00:17:54;;;;;;;13.10;6.10;;;5.50;99.90;;;;;;5078576;28;20040;-64
2024/02/13 00:20:20;;;;;;;8.73;5.47;;;5.40;99.90;;;;;;5081797;28;20090;-64
2024/02/13 00:22:47;;;;;;;10.18;5.93;;;5.40;99.90;;;;;;5094855;28;20092;-64
2024/02/13 00:25:13;;;;;;;10.07;5.53;;;5.60;99.90;;;;;;5094386;28;20971;-64
2024/02/13 00:27:39;;;;;;;11.20;5.57;;;5.30;99.90;;;;;;5097099;28;20038;-64
2024/02/13 00:30:05;;;;;;;9.38;5.43;;;5.30;99.90;;;;;;5094032;28;20037;-64
2024/02/13 00:32:32;;;;;;;9.30;5.53;;;5.20;99.90;;;;;;5068538;28;20130;-64
2024/02/13 00:34:58;;;;;;;10.73;5.95;;;5.20;99.90;;;;;;5083099;28;20047;-64
2024/02/13 00:37:24;;;;;;;11.90;5.63;;;5.20;99.90;;;;;;5080407;28;20046;-65
2024/02/13 00:39:54;;;;;;;13.30;6.35;;;5.10;99.90;;;;;;5083017;28;20048;-64
2024/02/13 00:42:19;;;;;;;9.68;6.43;;;5.10;99.90;;;;;;5115480;27;20052;-64
2024/02/13 00:44:45;;;;;;;10.45;5.55;;;5.00;99.90;;;;;;5068262;28;20035;-64
2024/02/13 00:47:11;;;;;;;10.30;5.93;;;5.00;99.90;;;;;;5069593;28;20040;-64
2024/02/13 00:49:37;;;;;;;8.02;6.03;;;5.00;99.90;;;;;;5083853;28;20170;-64
2024/02/13 00:52:04;;;;;;;7.30;5.47;;;5.00;99.90;;;;;;5086276;28;20074;-64
2024/02/13 00:54:30;;;;;;;10.80;5.88;;;4.90;99.90;;;;;;5097109;28;20048;-64
2024/02/13 00:56:56;;;;;;;14.40;6.60;;;4.90;99.90;;;;;;5101450;28;20115;-64
2024/02/13 00:59:22;;;;;;;10.63;5.55;;;4.90;99.90;;;;;;5105735;27;20046;-64
2024/02/13 01:01:48;;;;;;;11.32;6.78;;;4.90;99.90;;;;;;5098147;28;20482;-64
2024/02/13 01:04:14;;;;;;;10.85;6.22;;;4.90;99.90;;;;;;5083950;28;20040;-64
2024/02/13 01:06:40;;;;;;;12.23;6.97;;;4.80;99.90;;;;;;5108486;27;20053;-64
2024/02/13 01:09:05;;;;;;;10.65;6.60;;;4.90;99.90;;;;;;5096996;28;20080;-64
2024/02/13 01:11:35;;;;;;;13.75;7.15;;;4.80;99.90;;;;;;5082887;28;20093;-64
2024/02/13 01:14:02;;;;;;;12.77;7.20;;;4.80;99.90;;;;;;5081771;28;20359;-64
2024/02/13 01:16:28;;;;;;;13.50;6.40;;;4.90;99.90;;;;;;5085393;28;20082;-64
2024/02/13 01:18:57;;;;;;;11.13;7.65;;;4.90;99.90;;;;;;5080924;28;20040;-64
2024/02/13 01:21:23;;;;;;;10.70;8.20;;;4.90;99.90;;;;;;5098113;28;20028;-65
2024/02/13 01:23:49;;;;;;;14.23;7.50;;;4.90;99.90;;;;;;5096360;28;20543;-64
2024/02/13 01:26:18;;;;;;;17.73;9.00;;;4.90;99.90;;;;;;5079845;28;20048;-64
2024/02/13 01:28:44;;;;;;;14.75;7.78;;;4.90;99.90;;;;;;5078896;28;20088;-64
2024/02/13 01:31:10;;;;;;;16.92;8.40;;;4.90;99.90;;;;;;5099608;28;20059;-64
2024/02/13 01:33:36;;;;;;;15.52;8.73;;;4.90;99.90;;;;;;5081929;28;20051;-64
2024/02/13 01:36:04;;;;;;;13.18;8.95;;;4.90;99.90;;;;;;5064441;28;20040;-64
2024/02/13 01:38:30;;;;;;;11.55;8.93;;;4.90;99.90;;;;;;5108739;27;20051;-64
2024/02/13 01:40:56;;;;;;;21.88;9.48;;;4.90;99.90;;;;;;5098706;28;20435;-64
2024/02/13 01:43:25;;;;;;;12.50;9.98;;;4.90;99.90;;;;;;5096163;28;20039;-64
2024/02/13 01:45:53;;;;;;;14.75;10.10;;;4.90;99.90;;;;;;5100774;28;20032;-64
2024/02/13 01:48:21;;;;;;;20.42;11.45;;;4.90;99.90;;;;;;5082695;28;20040;-64
2024/02/13 01:50:48;;;;;;;16.17;10.48;;;4.90;99.90;;;;;;5083748;28;20043;-64
2024/02/13 01:53:17;;;;;;;17.98;10.80;;;4.80;99.90;;;;;;5092789;28;20040;-64
2024/02/13 01:55:44;;;;;;;16.80;11.07;;;4.90;99.90;;;;;;5079708;28;20043;-64
2024/02/13 01:58:11;;;;;;;14.82;11.27;;;4.90;99.90;;;;;;5079889;28;20516;-64
2024/02/13 02:00:38;;;;;;;18.77;11.52;;;4.80;99.90;;;;;;5077113;28;20119;-64
2024/02/13 02:03:04;;;;;;;16.50;11.57;;;4.80;99.90;;;;;;5076075;28;20043;-64
2024/02/13 02:05:31;;;;;;;17.77;11.30;;;4.90;99.90;;;;;;5075166;28;20043;-64
2024/02/13 02:07:58;;;;;;;18.40;12.85;;;4.70;99.90;;;;;;5077379;28;20105;-64
2024/02/13 02:10:24;;;;;;;17.10;11.57;;;4.80;99.90;;;;;;5092326;28;20035;-64
2024/02/13 02:12:50;;;;;;;17.90;13.45;;;5.00;99.90;;;;;;5074396;28;20051;-64
2024/02/13 02:15:16;;;;;;;19.98;13.40;;;4.70;99.90;;;;;;5079114;28;20042;-64
2024/02/13 02:17:55;;;;;;;17.30;13.65;;;4.70;99.90;;;;;;5109769;27;20048;-64
2024/02/13 02:20:24;;;;;;;18.05;12.82;;;4.70;99.90;;;;;;5111511;27;20055;-64
2024/02/13 02:22:51;;;;;;;17.58;12.98;;;4.70;99.90;;;;;;5062038;28;20043;-64
2024/02/13 02:25:18;;;;;;;17.95;12.63;;;4.70;99.90;;;;;;5079027;28;20089;-64
2024/02/13 02:27:44;;;;;;;18.42;13.55;;;4.70;99.90;;;;;;5080390;28;20051;-64
2024/02/13 02:30:10;;;;;;;19.40;13.35;;;4.70;99.90;;;;;;5093021;28;20055;-64
2024/02/13 02:32:36;;;;;;;20.52;13.98;;;4.70;99.90;;;;;;5077965;28;20039;-64
2024/02/13 02:35:02;;;;;;;18.55;13.95;;;4.70;99.90;;;;;;5074651;28;20048;-64
2024/02/13 02:37:27;;;;;;;19.45;13.20;;;4.70;99.90;;;;;;5071722;28;20154;-64
2024/02/13 02:39:53;;;;;;;16.27;13.50;;;4.70;99.90;;;;;;5079097;28;20044;-64
2024/02/13 02:42:18;;;;;;;23.85;13.20;;;4.70;99.90;;;;;;5076130;28;20040;-64
2024/02/13 02:44:44;;;;;;;18.92;13.60;;;4.70;99.90;;;;;;5095787;28;20032;-64
2024/02/13 02:47:11;;;;;;;18.58;13.10;;;4.70;99.90;;;;;;5077457;28;20496;-64
2024/02/13 02:49:37;;;;;;;16.40;12.15;;;4.70;99.90;;;;;;5079221;28;20043;-64
2024/02/13 02:52:07;;;;;;;20.33;12.07;;;4.70;99.90;;;;;;5079667;28;20079;-64
2024/02/13 02:54:36;;;;;;;19.15;12.35;;;4.70;99.90;;;;;;5076520;28;20035;-64
2024/02/13 02:57:06;;;;;;;13.60;11.70;;;4.70;99.90;;;;;;5075405;28;20389;-64
2024/02/13 02:59:32;;;;;;;15.70;12.43;;;4.70;99.90;;;;;;5105620;27;20044;-64
2024/02/13 03:01:58;;;;;;;18.77;11.15;;;4.70;99.90;;;;;;5096528;28;20054;-64
2024/02/13 03:04:25;;;;;;;14.07;11.07;;;4.70;99.90;;;;;;5108043;27;20032;-64
2024/02/13 03:06:51;;;;;;;14.32;11.73;;;4.60;99.90;;;;;;5075701;28;20050;-64
2024/02/13 03:09:17;;;;;;;15.75;12.07;;;4.60;99.90;;;;;;5069773;28;20044;-64
2024/02/13 03:11:42;;;;;;;17.88;11.73;;;4.70;99.90;;;;;;5095081;28;20567;-64
2024/02/13 03:14:11;;;;;;;15.75;10.45;;;4.70;99.90;;;;;;5087847;28;20036;-64
2024/02/13 03:16:37;;;;;;;13.98;10.25;;;4.60;99.90;;;;;;5094049;28;20043;-64
2024/02/13 03:19:05;;;;;;;15.70;11.07;;;4.70;99.90;;;;;;5071459;28;20032;-64
2024/02/13 03:21:31;;;;;;;14.15;10.57;;;4.70;99.90;;;;;;5074972;28;20355;-64
2024/02/13 03:23:57;;;;;;;15.43;10.52;;;4.60;99.90;;;;;;5074804;28;20035;-64
2024/02/13 03:26:23;;;;;;;13.73;9.88;;;4.70;99.90;;;;;;5075673;28;20044;-64
2024/02/13 03:28:48;;;;;;;16.88;10.25;;;4.60;99.90;;;;;;5075053;28;20797;-64
2024/02/13 03:31:14;;;;;;;12.27;9.77;;;4.60;99.90;;;;;;5071255;28;20119;-64
2024/02/13 03:33:40;;;;;;;12.70;10.18;;;4.60;99.90;;;;;;5106051;27;20048;-64
2024/02/13 03:36:06;;;;;;;15.25;10.10;;;4.60;99.90;;;;;;5074202;28;20044;-64
2024/02/13 03:38:31;;;;;;;17.13;10.38;;;4.50;99.90;;;;;;5075452;28;20130;-64
2024/02/13 03:40:57;;;;;;;13.90;10.68;;;4.60;99.90;;;;;;5095256;28;20441;-64
2024/02/13 03:43:22;;;;;;;14.98;11.30;;;4.50;99.90;;;;;;5077717;28;20135;-64
2024/02/13 03:45:48;;;;;;;16.27;11.32;;;4.50;99.90;;;;;;5077239;28;20039;-64
2024/02/13 03:48:15;;;;;;;18.08;10.95;;;4.50;99.90;;;;;;5105039;27;20039;-64
2024/02/13 03:50:41;;;;;;;13.20;10.70;;;4.40;99.90;;;;;;5074974;28;20062;-64
2024/02/13 03:53:07;;;;;;;13.70;11.38;;;4.50;99.90;;;;;;5092576;28;20375;-64
2024/02/13 03:55:32;;;;;;;15.80;11.13;;;4.50;99.90;;;;;;5091973;28;20043;-64
2024/02/13 03:57:58;;;;;;;14.32;10.55;;;4.50;99.90;;;;;;5096871;28;20028;-64
2024/02/13 04:00:24;;;;;;;14.10;11.63;;;4.50;99.90;;;;;;5077158;28;20117;-64
2024/02/13 04:02:49;;;;;;;13.35;11.48;;;4.40;99.90;;;;;;5060317;28;20050;-64
2024/02/13 04:05:15;;;;;;;13.50;11.68;;;4.50;99.90;;;;;;5076714;28;20427;-64
2024/02/13 04:07:41;;;;;;;15.45;11.50;;;4.50;99.90;;;;;;5074100;28;20076;-64
2024/02/13 04:10:07;;;;;;;16.23;11.88;;;4.40;99.90;;;;;;5077264;28;20040;-64
2024/02/13 04:12:33;;;;;;;18.73;12.45;;;4.50;99.90;;;;;;5095336;28;20044;-64
2024/02/13 04:14:59;;;;;;;16.38;12.40;;;4.40;99.90;;;;;;5074373;28;20044;-64
2024/02/13 04:17:25;;;;;;;14.98;11.93;;;4.40;99.90;;;;;;5073655;28;20508;-64
2024/02/13 04:19:52;;;;;;;17.67;12.73;;;4.50;99.90;;;;;;5057815;28;20032;-64
2024/02/13 04:22:18;;;;;;;17.02;11.57;;;4.40;99.90;;;;;;5077436;28;20073;-64
2024/02/13 04:24:44;;;;;;;17.73;12.60;;;4.40;99.90;;;;;;5074020;28;20043;-64
2024/02/13 04:27:10;;;;;;;18.60;12.38;;;4.40;99.90;;;;;;5095193;28;20051;-64
2024/02/13 04:29:35;;;;;;;16.08;13.20;;;4.40;99.90;;;;;;5075058;28;20036;-64
2024/02/13 04:32:01;;;;;;;14.98;12.18;;;4.40;99.90;;;;;;5075479;28;20533;-64
2024/02/13 04:34:27;;;;;;;20.17;13.52;;;4.40;99.90;;;;;;5076827;28;20061;-64
2024/02/13 04:36:53;;;;;;;18.92;13.75;;;4.40;99.90;;;;;;5074813;28;20071;-64
2024/02/13 04:39:18;;;;;;;14.85;12.70;;;4.40;99.90;;;;;;5072850;28;20080;-65
2024/02/13 04:41:44;;;;;;;20.17;13.38;;;4.40;99.90;;;;;;5078328;28;20039;-64
2024/02/13 04:44:11;;;;;;;17.13;13.65;;;4.40;99.90;;;;;;5078278;28;20502;-64
2024/02/13 04:46:39;;;;;;;17.98;13.98;;;4.30;99.90;;;;;;5094361;28;20052;-64
2024/02/13 04:49:05;;;;;;;18.98;14.48;;;4.30;99.90;;;;;;5076072;28;20060;-64
2024/02/13 04:51:31;;;;;;;15.85;13.07;;;4.40;99.90;;;;;;5095826;28;20032;-64
2024/02/13 04:53:57;;;;;;;18.90;13.80;;;4.60;99.90;;;;;;5092152;28;20119;-65
2024/02/13 04:56:23;;;;;;;16.80;14.13;;;4.40;99.90;;;;;;5076399;28;20166;-64
2024/02/13 04:58:55;;;;;;;20.48;13.88;;;4.40;99.90;;;;;;5077425;28;20097;-64
2024/02/13 05:01:22;;;;;;;18.40;15.10;;;4.40;99.90;;;;;;5090609;28;20089;-64
2024/02/13 05:08:58;;;;;;;22.70;15.95;;;4.30;99.90;;;;;;5092989;28;20040;-64
2024/02/13 05:11:24;;;;;;;20.02;15.25;;;4.30;99.90;;;;;;5105296;28;20048;-64
2024/02/13 05:13:51;;;;;;;19.05;15.02;;;4.40;99.90;;;;;;5088711;28;20063;-64
2024/02/13 05:16:20;;;;;;;19.80;15.20;;;4.30;99.90;;;;;;5105524;28;20040;-64
2024/02/13 05:18:46;;;;;;;18.88;14.73;;;4.30;99.90;;;;;;5071805;28;20048;-64
2024/02/13 05:21:13;;;;;;;19.30;14.90;;;4.30;99.90;;;;;;5075983;28;20477;-64
2024/02/13 05:23:39;;;;;;;21.50;14.60;;;4.30;99.90;;;;;;5062507;28;20040;-64
2024/02/13 05:26:11;;;;;;;20.92;15.18;;;4.20;99.90;;;;;;5079208;28;20043;-64
2024/02/13 05:28:38;;;;;;;20.73;15.18;;;4.30;99.90;;;;;;5086433;28;20074;-64
2024/02/13 05:31:10;;;;;;;18.90;15.68;;;4.30;99.90;;;;;;5096713;28;20024;-64
2024/02/13 05:33:36;;;;;;;21.05;15.75;;;4.20;99.90;;;;;;5077466;28;20461;-64
2024/02/13 05:36:09;;;;;;;21.15;14.85;;;4.20;99.90;;;;;;5076276;28;20041;-64
2024/02/13 05:38:37;;;;;;;22.50;15.93;;;4.20;99.90;;;;;;5104384;27;20048;-64
2024/02/13 05:41:04;;;;;;;18.00;15.13;;;4.20;99.90;;;;;;5075319;28;20055;-64
2024/02/13 05:43:30;;;;;;;17.80;15.77;;;4.20;99.90;;;;;;5070261;28;20068;-64
2024/02/13 05:45:56;;;;;;;22.70;15.82;;;4.20;99.90;;;;;;5068596;28;20036;-64
2024/02/13 05:48:24;;;;;;;19.42;14.65;;;4.10;99.90;;;;;;5091188;28;20071;-64
2024/02/13 05:50:54;;;;;;;23.88;16.23;;;4.20;99.90;;;;;;5106264;27;20052;-64
2024/02/13 05:53:21;;;;;;;18.45;15.75;;;4.10;99.90;;;;;;5105213;27;20048;-64
2024/02/13 05:55:48;;;;;;;23.98;17.23;;;4.10;99.90;;;;;;5077100;28;20048;-64
2024/02/13 05:58:14;;;;;;;24.23;16.85;;;4.10;99.90;;;;;;5075320;28;20035;-64
2024/02/13 06:00:40;;;;;;;19.63;16.63;;;4.10;99.90;;;;;;5091557;28;20082;-64
2024/02/13 06:03:06;;;;;;;21.17;16.25;;;4.20;99.90;;;;;;5071549;28;20107;-64
2024/02/13 06:05:32;;;;;;;26.60;17.38;;;4.10;99.90;;;;;;5075163;28;20064;-64
2024/02/13 06:07:57;;;;;;;18.85;15.60;;;4.20;99.90;;;;;;5075944;28;20070;-64
2024/02/13 06:10:27;;;;;;;23.15;16.27;;;4.20;99.90;;;;;;5077926;28;20074;-64
2024/02/13 06:12:52;;;;;;;20.25;15.32;;;4.20;99.90;;;;;;5094172;28;20537;-64
2024/02/13 06:15:18;;;;;;;31.15;18.38;;;4.20;99.90;;;;;;5097612;28;20121;-64
2024/02/13 06:17:44;;;;;;;21.83;16.23;;;4.20;99.90;;;;;;5093318;28;20039;-64
2024/02/13 06:20:12;;;;;;;23.17;16.13;;;4.20;99.90;;;;;;5094387;28;20044;-64
2024/02/13 06:22:38;;;;;;;20.20;15.55;;;4.20;99.90;;;;;;5082950;28;20105;-64
2024/02/13 06:25:05;;;;;;;17.80;15.25;;;4.20;99.90;;;;;;5076709;28;20035;-64
2024/02/13 06:27:32;;;;;;;18.92;15.00;;;4.30;99.90;;;;;;5076013;28;20024;-64
2024/02/13 06:29:58;;;;;;;23.42;15.15;;;4.30;99.90;;;;;;5078467;28;20398;-64
2024/02/13 06:32:24;;;;;;;18.70;14.27;;;4.20;99.90;;;;;;5073855;28;20105;-64
2024/02/13 06:34:52;;;;;;;16.15;14.45;;;4.30;99.90;;;;;;5107353;27;20136;-64
2024/02/13 06:37:18;;;;;;;18.10;14.48;;;4.30;99.90;;;;;;5075842;28;20060;-64
2024/02/13 06:39:44;;;;;;;19.60;14.13;;;4.30;99.90;;;;;;5070930;28;20040;-64
2024/02/13 06:42:09;;;;;;;19.23;14.43;;;4.30;99.90;;;;;;5074090;28;20127;-64
2024/02/13 06:44:36;;;;;;;23.98;14.70;;;4.40;99.90;;;;;;5075939;28;20040;-63
2024/02/13 06:47:06;;;;;;;16.73;14.15;;;4.40;99.90;;;;;;5095683;28;20382;-62
2024/02/13 06:49:32;;;;;;;20.65;14.32;;;4.40;99.90;;;;;;5106098;27;20506;-62
2024/02/13 06:51:58;;;;;;;17.38;14.10;;;4.50;99.90;;;;;;5089803;28;20058;-62
2024/02/13 06:54:24;;;;;;;21.33;14.48;;;4.50;99.90;;;;;;5073126;28;20043;-62
2024/02/13 06:56:50;;;;;;;16.90;13.65;;;4.40;99.90;;;;;;5082347;28;20443;-62
2024/02/13 06:59:16;;;;;;;18.33;14.27;;;4.40;99.90;;;;;;5093161;28;20040;-62
2024/02/13 07:01:42;;;;;;;17.65;13.20;;;4.50;99.90;;;;;;5071739;28;20084;-62
2024/02/13 07:04:08;;;;;;;16.42;12.75;;;4.50;99.90;;;;;;5072975;28;20475;-62
2024/02/13 07:06:33;;;;;;;16.45;13.20;;;4.40;99.90;;;;;;5074275;28;20035;-62
2024/02/13 07:08:59;;;;;;;15.95;13.00;;;4.50;99.90;;;;;;5067015;28;20073;-62
2024/02/13 07:11:25;;;;;;;15.13;12.70;;;4.50;99.90;;;;;;5092104;28;20043;-62
2024/02/13 07:13:51;;;;;;;15.60;12.70;;;4.50;99.90;;;;;;5073436;28;20052;-62
2024/02/13 07:16:17;;;;;;;17.17;12.85;;;4.50;99.90;;;;;;5092629;28;20047;-62
2024/02/13 07:18:42;;;;;;;17.38;13.50;;;4.40;99.90;;;;;;5089548;28;20040;-62
2024/02/13 07:21:08;;;;;;;18.02;13.15;;;4.50;99.90;;;;;;5077223;28;20101;-62
2024/02/13 07:23:35;;;;;;;21.02;13.63;;;4.40;99.90;;;;;;5073917;28;20031;-62
2024/02/13 07:26:01;;;;;;;20.48;13.50;;;4.40;99.90;;;;;;5110402;27;20039;-62
2024/02/13 07:28:30;;;;;;;16.33;13.65;;;4.50;99.90;;;;;;5098781;27;20032;-62
2024/02/13 07:30:56;;;;;;;16.70;11.63;;;4.50;99.90;;;;;;5093899;28;20551;-62
2024/02/13 07:33:22;;;;;;;20.27;13.82;;;4.50;99.90;;;;;;5094574;28;20447;-62
2024/02/13 07:35:48;;;;;;;17.50;13.40;;;4.50;99.90;;;;;;5088570;28;20032;-62
2024/02/13 07:38:13;;;;;;;16.65;12.77;;;4.60;99.90;;;;;;5090518;28;20583;-62
2024/02/13 07:40:39;;;;;;;17.33;13.02;;;4.60;99.90;;;;;;5090782;28;20110;-62
2024/02/13 07:43:06;;;;;;;22.80;13.00;;;4.60;99.90;;;;;;5093794;28;20115;-62
2024/02/13 07:45:32;;;;;;;14.95;12.52;;;4.60;99.90;;;;;;5075358;28;20063;-62
2024/02/13 07:47:59;;;;;;;17.30;13.60;;;4.60;99.90;;;;;;5071540;28;20040;-62
2024/02/13 07:50:26;;;;;;;17.75;12.95;;;4.70;99.90;;;;;;5090937;28;20040;-62
2024/02/13 07:52:51;;;;;;;20.73;13.68;;;4.70;99.90;;;;;;5089754;28;20086;-62
2024/02/13 07:55:18;;;;;;;18.75;13.82;;;4.70;99.90;;;;;;5092582;28;20565;-62
2024/02/13 07:57:49;;;;;;;14.48;12.82;;;4.70;99.90;;;;;;5068196;28;20068;-62
2024/02/13 08:00:20;;;;;;;18.63;12.07;;;4.70;99.90;;;;;;5071412;28;20044;-62
2024/02/13 08:02:48;;;;;;;14.27;11.52;;;4.80;99.90;;;;;;5091473;28;20409;-62
2024/02/13 08:05:14;;;;;;;16.55;12.52;;;4.80;99.90;;;;;;5107390;27;20044;-62
2024/02/13 08:07:39;;;;;;;19.98;12.20;;;4.80;99.90;;;;;;5105923;28;20051;-62
2024/02/13 08:10:06;;;;;;;20.80;12.48;;;4.90;99.90;;;;;;5074115;28;20039;-62
2024/02/13 08:12:33;;;;;;;16.85;11.00;;;5.00;99.90;;;;;;5091185;28;20035;-62
2024/02/13 08:14:58;;;;;;;17.67;11.30;;;5.00;99.90;;;;;;5074991;28;20047;-62
2024/02/13 08:17:24;;;;;;;13.98;11.52;;;5.00;99.90;;;;;;5073436;28;20371;-62
2024/02/13 08:19:49;;;;;;;19.27;11.60;;;5.00;99.90;;;;;;5094587;28;20052;-62
2024/02/13 08:22:18;;;;;;;17.17;10.23;;;5.10;99.90;;;;;;5075467;28;20429;-62
2024/02/13 08:24:44;;;;;;;19.23;11.23;;;5.20;99.90;;;;;;5072790;28;20040;-62
2024/02/13 08:27:10;;;;;;;17.13;11.05;;;5.20;99.90;;;;;;5076783;28;20123;-62
2024/02/13 08:29:35;;;;;;;15.75;10.43;;;5.20;99.90;;;;;;5073941;28;20032;-62
2024/02/13 08:32:06;;;;;;;16.08;9.50;;;5.30;99.90;;;;;;5074038;28;20113;-63
2024/02/13 08:34:32;;;;;;;14.85;9.15;;;5.30;99.90;;;;;;5074886;28;20043;-62
2024/02/13 08:36:58;;;;;;;17.55;9.40;;;5.40;99.90;;;;;;5073681;28;20056;-62
2024/02/13 08:39:23;;;;;;;20.95;9.95;;;5.50;99.90;;;;;;5088460;28;20036;-62
2024/02/13 08:41:49;;;;;;;15.80;8.98;;;5.50;99.90;;;;;;5074221;28;20040;-62
2024/02/13 08:44:16;;;;;;;15.63;9.73;;;5.60;99.90;;;;;;5059507;28;20106;-62
2024/02/13 08:46:41;;;;;;;13.07;8.35;;;5.60;99.90;;;;;;5077092;28;20048;-62
2024/02/13 08:49:07;;;;;;;15.80;8.52;;;5.70;99.90;;;;;;5072920;28;20496;-62
2024/02/13 08:51:33;;;;;;;16.45;7.93;;;5.80;99.90;;;;;;5092528;28;20577;-62
2024/02/13 08:53:59;;;;;;;17.38;8.55;;;5.80;99.90;;;;;;5079058;28;20401;-62
2024/02/13 08:56:25;;;;;;;13.65;8.05;;;5.90;99.90;;;;;;5097992;28;20089;-62
2024/02/13 08:58:52;;;;;;;11.70;7.75;;;5.90;99.90;;;;;;5083739;28;20108;-62
2024/02/13 09:01:21;;;;;;;14.35;7.65;;;5.90;99.90;;;;;;5077470;28;20039;-62
2024/02/13 09:03:48;;;;;;;16.13;8.57;;;6.00;99.90;;;;;;5099972;28;20436;-62
2024/02/13 09:06:16;;;;;;;15.35;8.60;;;6.00;99.90;;;;;;5095858;28;20084;-62
2024/02/13 09:08:43;;;;;;;14.45;7.95;;;6.10;99.90;;;;;;5101620;28;20032;-62
2024/02/13 09:11:12;;;;;;;12.20;6.82;;;6.10;99.90;;;;;;5079174;28;20040;-62
2024/02/13 09:13:38;;;;;;;11.27;7.25;;;6.20;99.90;;;;;;5094567;28;20071;-62
2024/02/13 09:16:08;;;;;;;12.45;6.30;;;6.20;99.90;;;;;;5079286;28;20032;-62
2024/02/13 09:18:34;;;;;;;12.43;6.95;;;6.20;99.90;;;;;;5109188;27;20127;-62
2024/02/13 09:21:00;;;;;;;8.93;6.20;;;6.30;99.90;;;;;;5101928;28;21332;-62
2024/02/13 09:23:30;;;;;;;16.05;6.63;;;6.30;99.90;;;;;;5086729;28;20155;-62
2024/02/13 09:25:56;;;;;;;10.15;6.22;;;6.40;99.90;;;;;;5097825;28;20031;-62
2024/02/13 09:28:25;;;;;;;11.70;6.63;;;6.40;99.90;;;;;;5080550;28;20109;-62
2024/02/13 09:30:51;;;;;;;9.35;6.40;;;6.50;99.90;;;;;;5111284;27;20498;-62
2024/02/13 09:33:21;;;;;;;10.52;6.10;;;6.50;99.90;;;;;;5096010;28;20071;-62
2024/02/13 09:35:50;;;;;;;9.27;6.45;;;6.60;99.90;;;;;;5075492;28;20483;-62
2024/02/13 09:38:16;;;;;;;14.25;7.85;;;6.70;99.90;;;;;;5110126;27;20047;-62
2024/02/13 09:40:42;;;;;;;14.48;6.78;;;6.70;99.90;;;;;;5112065;27;20039;-62
2024/02/13 09:43:08;;;;;;;11.13;6.35;;;6.70;99.90;;;;;;5110081;27;20036;-62
2024/02/13 09:45:39;;;;;;;11.93;6.25;;;6.80;99.90;;;;;;5112648;27;20638;-62
2024/02/13 09:48:15;;;;;;;10.82;5.90;;;6.90;99.90;;;;;;5078988;28;20249;-62
2024/02/13 09:50:43;;;;;;;13.35;6.88;;;6.90;99.90;;;;;;5106415;27;20070;-62
2024/02/13 09:53:28;;;;;;;11.63;6.90;;;7.00;99.90;;;;;;5063339;28;20040;-62
2024/02/13 09:55:57;;;;;;;15.43;7.38;;;7.00;99.90;;;;;;5078808;28;20056;-62
2024/02/13 09:58:24;;;;;;;11.85;5.88;;;7.10;99.90;;;;;;5099679;28;20036;-62
2024/02/13 10:00:53;;;;;;;13.27;6.55;;;7.10;99.90;;;;;;5081038;28;20079;-62
2024/02/13 10:03:19;;;;;;;11.80;6.68;;;7.10;99.90;;;;;;5106264;27;20078;-62
2024/02/13 10:05:44;;;;;;;15.43;6.10;;;7.20;99.90;;;;;;5089290;28;20089;-62
2024/02/13 10:08:11;;;;;;;10.00;5.10;;;7.20;99.90;;;;;;5076741;28;20039;-62
2024/02/13 10:10:37;;;;;;;14.32;6.10;;;7.20;99.90;;;;;;5083137;28;20103;-62
2024/02/13 10:13:04;;;;;;;10.65;5.35;;;7.20;99.90;;;;;;5092615;28;20040;-62
2024/02/13 10:15:56;;;;;;;13.48;6.35;;;7.30;99.90;;;;;;5079562;28;20043;-62
2024/02/13 10:18:24;;;;;;;10.15;5.60;;;7.30;99.90;;;;;;5104424;27;20062;-62
2024/02/13 10:20:51;;;;;;;11.07;5.15;;;7.30;99.90;;;;;;5091437;28;20047;-62
2024/02/13 10:23:18;;;;;;;10.15;6.15;;;7.30;99.90;;;;;;5082776;28;20035;-62
2024/02/13 10:25:44;;;;;;;10.10;4.95;;;7.40;99.90;;;;;;5076709;28;20839;-62
2024/02/13 10:28:13;;;;;;;12.75;5.57;;;7.40;99.90;;;;;;5081642;28;20039;-62
2024/02/13 10:30:39;;;;;;;11.05;4.43;;;7.40;99.90;;;;;;5079237;28;20093;-62
2024/02/13 10:33:09;;;;;;;9.60;4.80;;;7.50;99.90;;;;;;5078090;28;20035;-62
2024/02/13 10:35:35;;;;;;;12.27;4.53;;;7.60;99.90;;;;;;5073812;28;20040;-62
2024/02/13 10:38:07;;;;;;;10.15;4.93;;;7.70;99.90;;;;;;5063819;28;20053;-62
2024/02/13 10:40:35;;;;;;;10.80;4.65;;;7.90;99.90;;;;;;5088780;28;20393;-62
2024/02/13 10:43:03;;;;;;;10.82;5.20;;;8.00;99.90;;;;;;5072188;28;20393;-62
2024/02/13 10:45:30;;;;;;;15.38;5.28;;;8.10;99.90;;;;;;5072829;28;20040;-62
2024/02/13 10:48:03;;;;;;;10.15;4.80;;;8.40;99.90;;;;;;5094496;28;20316;-62
2024/02/13 10:50:29;;;;;;;7.55;4.53;;;8.50;99.90;;;;;;5074498;28;20417;-62
2024/02/13 10:52:58;;;;;;;9.90;4.47;;;8.60;99.90;;;;;;5093009;28;20034;-62
2024/02/13 10:55:23;;;;;;;9.88;4.80;;;8.60;99.90;;;;;;5068971;28;20118;-62
2024/02/13 10:57:51;;;;;;;8.43;4.25;;;8.60;99.90;;;;;;5073782;28;20532;-62
2024/02/13 11:00:20;;;;;;;9.65;3.92;;;8.70;99.90;;;;;;5067472;28;20498;-62
2024/02/13 11:02:55;;;;;;;8.32;3.85;;;8.60;99.90;;;;;;5077917;28;20044;-62
2024/02/13 11:05:25;;;;;;;11.20;5.10;;;8.60;99.90;;;;;;5075325;28;20362;-62
2024/02/13 11:07:51;;;;;;;8.10;4.32;;;8.50;99.90;;;;;;5075530;28;20082;-62
2024/02/13 11:10:18;;;;;;;9.18;4.38;;;8.50;99.90;;;;;;5072944;28;20056;-62
2024/02/13 11:12:45;;;;;;;9.57;4.18;;;8.60;99.90;;;;;;5073964;28;20112;-62
2024/02/13 11:15:18;;;;;;;9.38;3.45;;;8.70;99.90;;;;;;5078117;28;20134;-62
2024/02/13 11:17:53;;;;;;;8.23;4.05;;;8.70;99.90;;;;;;5073889;28;20393;-62
2024/02/13 11:20:23;;;;;;;9.48;3.72;;;8.80;99.90;;;;;;5070660;28;20145;-62
2024/02/13 11:23:02;;;;;;;8.02;3.83;;;8.90;99.90;;;;;;5076263;28;20043;-62
2024/02/13 11:25:31;;;;;;;9.25;3.78;;;9.10;99.90;;;;;;5089190;28;20036;-62
2024/02/13 11:28:05;;;;;;;10.20;3.20;;;9.20;99.90;;;;;;5109650;27;20031;-62
2024/02/13 11:30:32;;;;;;;8.65;3.35;;;9.20;99.90;;;;;;5089649;28;20039;-62
2024/02/13 11:33:01;;;;;;;8.65;2.97;;;9.70;99.90;;;;;;5091532;28;20063;-62
2024/02/13 11:35:47;;;;;;;9.38;3.15;;;9.20;99.90;;;;;;5094065;28;20036;-62
2024/02/13 11:38:20;;;;;;;8.48;3.38;;;9.30;99.90;;;;;;5056164;28;20075;-62
2024/02/13 11:40:54;;;;;;;6.40;2.95;;;9.20;99.90;;;;;;5086462;28;20048;-62
2024/02/13 11:43:20;;;;;;;10.18;3.08;;;9.20;99.90;;;;;;5073954;28;20166;-62
2024/02/13 11:45:46;;;;;;;11.48;4.35;;;9.10;99.90;;;;;;5083379;28;20338;-62
2024/02/13 11:48:28;;;;;;;9.20;3.22;;;9.00;99.90;;;;;;5092474;28;20043;-62
2024/02/13 11:50:57;;;;;;;7.28;3.92;;;9.00;99.90;;;;;;5094792;28;20043;-62
2024/02/13 11:53:23;;;;;;;7.32;3.42;;;8.90;99.90;;;;;;5091565;28;20047;-62
2024/02/13 11:55:49;;;;;;;7.15;3.30;;;9.00;99.90;;;;;;5070675;28;20509;-62
2024/02/13 11:58:19;;;;;;;67.18;8.57;;;8.90;99.90;;;;;;5066285;28;20115;-62
2024/02/13 12:01:03;;;;;;;9.98;2.65;;;9.00;99.90;;;;;;5046586;28;20133;-62
2024/02/13 12:03:30;;;;;;;12.80;3.22;;;9.00;99.90;;;;;;5098298;27;20051;-62
2024/02/13 12:06:01;;;;;;;4.80;2.10;;;8.90;99.90;;;;;;5090998;28;20039;-62
2024/02/13 12:08:30;;;;;;;7.20;2.50;;;9.00;99.90;;;;;;5062521;28;20040;-62
2024/02/13 12:11:03;;;;;;;7.55;2.22;;;9.00;99.90;;;;;;5060609;28;20393;-62
2024/02/13 12:13:33;;;;;;;9.27;2.60;;;9.00;99.90;;;;;;5060940;28;20044;-62
2024/02/13 12:15:58;;;;;;;9.07;3.13;;;9.00;99.90;;;;;;5073239;28;20120;-62
2024/02/13 12:18:29;;;;;;;8.52;2.80;;;9.00;99.90;;;;;;5071896;28;20536;-62
2024/02/13 12:20:56;;;;;;;4.15;2.00;;;9.00;99.90;;;;;;5093281;28;20123;-62
2024/02/13 12:23:22;;;;;;;14.50;2.63;;;9.00;99.90;;;;;;5101764;28;20477;-62
2024/02/13 12:25:58;;;;;;;8.60;2.70;;;9.20;99.90;;;;;;5072861;28;20077;-62
2024/02/13 12:28:24;;;;;;;7.32;2.20;;;9.00;99.90;;;;;;5098232;28;20035;-62
2024/02/13 12:30:50;;;;;;;8.57;2.53;;;8.90;99.90;;;;;;5073102;28;20097;-62
2024/02/13 12:33:23;;;;;;;5.47;2.22;;;8.90;99.90;;;;;;5070778;28;20043;-62
2024/02/13 12:36:07;;;;;;;6.47;2.15;;;8.90;99.90;;;;;;5108632;27;20054;-62
2024/02/13 12:38:36;;;;;;;6.90;3.22;;;8.90;99.90;;;;;;5075969;28;20036;-62
2024/02/13 12:41:06;;;;;;;5.95;2.65;;;8.80;99.90;;;;;;5071444;28;20052;-61
2024/02/13 12:43:32;;;;;;;6.18;2.33;;;8.80;99.90;;;;;;5095313;28;20378;-62
2024/02/13 12:46:05;;;;;;;8.93;2.65;;;8.80;99.90;;;;;;5096335;28;20135;-62
2024/02/13 12:48:42;;;;;;;4.45;2.03;;;8.80;99.90;;;;;;5076960;28;20094;-62